sensor_id;sensor_type;location;lat;lon;timestamp;pressure;altitude;pressure_sealevel;temperature;humidity
10366;BME280;5229;41.820;23.490;2023-04-01T00:01:16;89328.78;;;9.95;46.99
10366;BME280;5229;41.820;23.490;2023-04-01T00:03:43;89320.59;;;9.93;46.98
10366;BME280;5229;41.820;23.490;2023-04-01T00:06:13;89327.91;;;9.91;47.18
10366;BME280;5229;41.820;23.490;2023-04-01T00:08:40;89326.72;;;9.89;47.38
10366;BME280;5229;41.820;23.490;2023-04-01T00:11:06;89325.94;;;9.88;47.37
10366;BME280;5229;41.820;23.490;2023-04-01T00:13:35;89316.91;;;9.94;46.97
10366;BME280;5229;41.820;23.490;2023-04-01T00:16:02;89319.97;;;9.96;46.94
10366;BME280;5229;41.820;23.490;2023-04-01T00:18:29;89324.06;;;9.97;47.33
10366;BME280;5229;41.820;23.490;2023-04-01T00:20:56;89316.91;;;9.94;47.45
10366;BME280;5229;41.820;23.490;2023-04-01T00:23:23;89319.97;;;9.96;47.51
10366;BME280;5229;41.820;23.490;2023-04-01T00:25:50;89318.88;;;9.97;47.69
10366;BME280;5229;41.820;23.490;2023-04-01T00:28:19;89327.59;;;9.93;47.49
10366;BME280;5229;41.820;23.490;2023-04-01T00:30:47;89318.69;;;9.82;48.14
10366;BME280;5229;41.820;23.490;2023-04-01T00:33:15;89319.19;;;9.75;48.06
10366;BME280;5229;41.820;23.490;2023-04-01T00:35:42;89316.34;;;9.68;48.08
10366;BME280;5229;41.820;23.490;2023-04-01T00:38:09;89322.56;;;9.67;48.31
10366;BME280;5229;41.820;23.490;2023-04-01T00:40:39;89297.34;;;9.64;48.39
10366;BME280;5229;41.820;23.490;2023-04-01T00:43:11;89299.00;;;9.60;48.27
10366;BME280;5229;41.820;23.490;2023-04-01T00:45:39;89300.72;;;9.56;48.63
10366;BME280;5229;41.820;23.490;2023-04-01T00:48:10;89298.13;;;9.56;48.81
10366;BME280;5229;41.820;23.490;2023-04-01T00:50:39;89290.19;;;9.61;48.44
10366;BME280;5229;41.820;23.490;2023-04-01T00:53:08;89290.00;;;9.66;48.40
10366;BME280;5229;41.820;23.490;2023-04-01T00:55:37;89291.19;;;9.69;48.29
10366;BME280;5229;41.820;23.490;2023-04-01T00:58:07;89276.44;;;9.69;48.34
10366;BME280;5229;41.820;23.490;2023-04-01T01:00:36;89291.03;;;9.74;48.14
10366;BME280;5229;41.820;23.490;2023-04-01T01:03:03;89299.22;;;9.76;48.10
10366;BME280;5229;41.820;23.490;2023-04-01T01:05:42;89291.16;;;9.77;48.42
10366;BME280;5229;41.820;23.490;2023-04-01T01:08:16;89284.56;;;9.80;48.25
10366;BME280;5229;41.820;23.490;2023-04-01T01:10:49;89289.00;;;9.79;48.58
10366;BME280;5229;41.820;23.490;2023-04-01T01:13:19;89294.63;;;9.81;48.48
10366;BME280;5229;41.820;23.490;2023-04-01T01:15:51;89295.84;;;9.84;48.29
10366;BME280;5229;41.820;23.490;2023-04-01T01:18:26;89277.41;;;9.85;48.70
10366;BME280;5229;41.820;23.490;2023-04-01T01:21:36;89276.63;;;9.85;48.98
10366;BME280;5229;41.820;23.490;2023-04-01T01:24:27;89260.22;;;9.81;48.46
10366;BME280;5229;41.820;23.490;2023-04-01T01:27:02;89246.97;;;9.82;48.55
10366;BME280;5229;41.820;23.490;2023-04-01T01:29:42;89237.22;;;9.79;48.70
10366;BME280;5229;41.820;23.490;2023-04-01T01:32:20;89230.09;;;9.76;48.87
10366;BME280;5229;41.820;23.490;2023-04-01T01:34:54;89239.13;;;9.70;48.65
10366;BME280;5229;41.820;23.490;2023-04-01T01:37:26;89247.09;;;9.65;48.71
10366;BME280;5229;41.820;23.490;2023-04-01T01:39:57;89255.38;;;9.59;48.80
10366;BME280;5229;41.820;23.490;2023-04-01T01:42:26;89268.34;;;9.50;49.15
10366;BME280;5229;41.820;23.490;2023-04-01T01:44:55;89269.59;;;9.44;49.50
10366;BME280;5229;41.820;23.490;2023-04-01T01:47:25;89273.91;;;9.40;49.12
10366;BME280;5229;41.820;23.490;2023-04-01T01:49:54;89261.59;;;9.37;49.53
10366;BME280;5229;41.820;23.490;2023-04-01T01:52:22;89262.22;;;9.34;48.92
10366;BME280;5229;41.820;23.490;2023-04-01T01:54:52;89265.88;;;9.33;49.33
10366;BME280;5229;41.820;23.490;2023-04-01T01:57:24;89259.34;;;9.27;49.22
10366;BME280;5229;41.820;23.490;2023-04-01T01:59:52;89250.56;;;9.20;49.83
10366;BME280;5229;41.820;23.490;2023-04-01T02:02:22;89262.91;;;9.14;50.01
10366;BME280;5229;41.820;23.490;2023-04-01T02:04:50;89259.44;;;9.10;49.81
10366;BME280;5229;41.820;23.490;2023-04-01T02:07:20;89258.25;;;9.07;50.02
10366;BME280;5229;41.820;23.490;2023-04-01T02:09:48;89255.53;;;9.04;49.71
10366;BME280;5229;41.820;23.490;2023-04-01T02:12:17;89247.50;;;8.97;50.22
10366;BME280;5229;41.820;23.490;2023-04-01T02:14:48;89244.00;;;8.93;50.13
10366;BME280;5229;41.820;23.490;2023-04-01T02:17:18;89241.13;;;8.94;50.41
10366;BME280;5229;41.820;23.490;2023-04-01T02:19:48;89235.50;;;8.92;50.81
10366;BME280;5229;41.820;23.490;2023-04-01T02:22:19;89239.91;;;8.92;50.71
10366;BME280;5229;41.820;23.490;2023-04-01T02:24:49;89256.03;;;8.89;50.57
10366;BME280;5229;41.820;23.490;2023-04-01T02:27:20;89245.13;;;8.83;50.71
10366;BME280;5229;41.820;23.490;2023-04-01T02:29:47;89235.28;;;8.77;50.95
10366;BME280;5229;41.820;23.490;2023-04-01T02:32:14;89233.19;;;8.70;51.03
10366;BME280;5229;41.820;23.490;2023-04-01T02:34:42;89222.72;;;8.67;51.41
10366;BME280;5229;41.820;23.490;2023-04-01T02:37:10;89218.91;;;8.64;50.95
10366;BME280;5229;41.820;23.490;2023-04-01T02:39:38;89221.19;;;8.66;51.30
10366;BME280;5229;41.820;23.490;2023-04-01T02:42:05;89217.84;;;8.65;51.81
10366;BME280;5229;41.820;23.490;2023-04-01T02:44:33;89212.25;;;8.63;51.15
10366;BME280;5229;41.820;23.490;2023-04-01T02:47:01;89214.66;;;8.68;51.42
10366;BME280;5229;41.820;23.490;2023-04-01T02:49:28;89211.75;;;8.70;51.34
10366;BME280;5229;41.820;23.490;2023-04-01T02:51:54;89206.28;;;8.71;51.06
10366;BME280;5229;41.820;23.490;2023-04-01T02:54:21;89213.88;;;8.68;51.47
10366;BME280;5229;41.820;23.490;2023-04-01T02:56:48;89205.69;;;8.66;51.78
10366;BME280;5229;41.820;23.490;2023-04-01T02:59:15;89204.94;;;8.65;51.43
10366;BME280;5229;41.820;23.490;2023-04-01T03:01:43;89210.09;;;8.65;51.90
10366;BME280;5229;41.820;23.490;2023-04-01T03:04:10;89200.06;;;8.64;51.83
10366;BME280;5229;41.820;23.490;2023-04-01T03:06:37;89202.66;;;8.64;51.58
10366;BME280;5229;41.820;23.490;2023-04-01T03:09:03;89196.09;;;8.66;51.80
10366;BME280;5229;41.820;23.490;2023-04-01T03:11:30;89191.69;;;8.67;51.97
10366;BME280;5229;41.820;23.490;2023-04-01T03:13:57;89198.81;;;8.70;51.63
10366;BME280;5229;41.820;23.490;2023-04-01T03:16:24;89199.28;;;8.72;51.63
10366;BME280;5229;41.820;23.490;2023-04-01T03:18:52;89200.78;;;8.73;52.19
10366;BME280;5229;41.820;23.490;2023-04-01T03:21:22;89205.66;;;8.74;52.35
10366;BME280;5229;41.820;23.490;2023-04-01T03:23:49;89205.16;;;8.81;51.80
10366;BME280;5229;41.820;23.490;2023-04-01T03:26:16;89189.47;;;8.86;51.90
10366;BME280;5229;41.820;23.490;2023-04-01T03:28:43;89197.66;;;8.88;51.69
10366;BME280;5229;41.820;23.490;2023-04-01T03:31:10;89200.41;;;8.91;51.85
10366;BME280;5229;41.820;23.490;2023-04-01T03:33:37;89199.31;;;8.92;51.61
10366;BME280;5229;41.820;23.490;2023-04-01T03:36:06;89200.06;;;8.93;51.70
10366;BME280;5229;41.820;23.490;2023-04-01T03:38:33;89189.72;;;8.93;51.55
10366;BME280;5229;41.820;23.490;2023-04-01T03:41:00;89184.56;;;8.93;51.73
10366;BME280;5229;41.820;23.490;2023-04-01T03:43:27;89192.31;;;8.93;52.30
10366;BME280;5229;41.820;23.490;2023-04-01T03:45:54;89183.03;;;8.92;51.68
10366;BME280;5229;41.820;23.490;2023-04-01T03:48:22;89186.72;;;8.91;52.27
10366;BME280;5229;41.820;23.490;2023-04-01T03:50:50;89190.38;;;8.90;52.21
10366;BME280;5229;41.820;23.490;2023-04-01T03:53:19;89184.91;;;8.91;51.68
10366;BME280;5229;41.820;23.490;2023-04-01T03:55:46;89188.66;;;8.94;52.53
10366;BME280;5229;41.820;23.490;2023-04-01T03:58:13;89183.81;;;8.92;52.72
10366;BME280;5229;41.820;23.490;2023-04-01T04:00:41;89178.97;;;8.91;52.11
10366;BME280;5229;41.820;23.490;2023-04-01T04:03:07;89177.13;;;8.91;52.52
10366;BME280;5229;41.820;23.490;2023-04-01T04:05:34;89162.38;;;8.92;52.43
10366;BME280;5229;41.820;23.490;2023-04-01T04:08:01;89166.78;;;8.91;52.32
10366;BME280;5229;41.820;23.490;2023-04-01T04:10:29;89176.38;;;8.91;52.55
10366;BME280;5229;41.820;23.490;2023-04-01T04:12:56;89168.94;;;8.89;52.64
10366;BME280;5229;41.820;23.490;2023-04-01T04:15:23;89174.97;;;8.93;52.93
10366;BME280;5229;41.820;23.490;2023-04-01T04:17:50;89176.94;;;8.96;52.75
10366;BME280;5229;41.820;23.490;2023-04-01T04:20:16;89164.78;;;8.97;53.08
10366;BME280;5229;41.820;23.490;2023-04-01T04:22:43;89159.72;;;9.00;52.89
10366;BME280;5229;41.820;23.490;2023-04-01T04:25:10;89148.88;;;9.07;53.21
10366;BME280;5229;41.820;23.490;2023-04-01T04:27:38;89147.63;;;9.13;53.15
10366;BME280;5229;41.820;23.490;2023-04-01T04:30:06;89147.00;;;9.16;53.11
10366;BME280;5229;41.820;23.490;2023-04-01T04:32:34;89141.19;;;9.19;52.73
10366;BME280;5229;41.820;23.490;2023-04-01T04:35:00;89134.31;;;9.23;52.88
10366;BME280;5229;41.820;23.490;2023-04-01T04:37:27;89124.44;;;9.25;52.66
10366;BME280;5229;41.820;23.490;2023-04-01T04:39:54;89125.06;;;9.22;53.16
10366;BME280;5229;41.820;23.490;2023-04-01T04:42:21;89128.28;;;9.19;52.99
10366;BME280;5229;41.820;23.490;2023-04-01T04:44:49;89128.28;;;9.19;53.15
10366;BME280;5229;41.820;23.490;2023-04-01T04:47:15;89131.47;;;9.16;53.15
10366;BME280;5229;41.820;23.490;2023-04-01T04:49:42;89146.13;;;9.12;53.26
10366;BME280;5229;41.820;23.490;2023-04-01T04:52:09;89135.53;;;9.05;53.48
10366;BME280;5229;41.820;23.490;2023-04-01T04:54:36;89140.25;;;9.03;53.43
10366;BME280;5229;41.820;23.490;2023-04-01T04:57:03;89137.66;;;9.03;53.35
10366;BME280;5229;41.820;23.490;2023-04-01T04:59:30;89138.78;;;9.14;53.18
10366;BME280;5229;41.820;23.490;2023-04-01T05:01:58;89149.63;;;9.28;53.17
10366;BME280;5229;41.820;23.490;2023-04-01T05:04:25;89150.28;;;9.46;53.17
10366;BME280;5229;41.820;23.490;2023-04-01T05:06:52;89140.09;;;9.61;52.97
10366;BME280;5229;41.820;23.490;2023-04-01T05:09:19;89135.81;;;9.77;52.47
10366;BME280;5229;41.820;23.490;2023-04-01T05:11:46;89124.75;;;9.89;52.68
10366;BME280;5229;41.820;23.490;2023-04-01T05:14:13;89115.63;;;10.03;52.64
10366;BME280;5229;41.820;23.490;2023-04-01T05:16:40;89122.34;;;10.16;52.03
10366;BME280;5229;41.820;23.490;2023-04-01T05:19:08;89108.34;;;10.29;51.94
10366;BME280;5229;41.820;23.490;2023-04-01T05:21:35;89104.69;;;10.42;51.71
10366;BME280;5229;41.820;23.490;2023-04-01T05:24:02;89106.28;;;10.59;51.88
10366;BME280;5229;41.820;23.490;2023-04-01T05:26:29;89094.91;;;10.87;51.07
10366;BME280;5229;41.820;23.490;2023-04-01T05:28:55;89091.56;;;11.26;50.90
10366;BME280;5229;41.820;23.490;2023-04-01T05:31:22;89099.47;;;11.57;49.58
10366;BME280;5229;41.820;23.490;2023-04-01T05:33:50;89095.28;;;11.80;49.17
10366;BME280;5229;41.820;23.490;2023-04-01T05:36:20;89099.09;;;11.99;48.49
10366;BME280;5229;41.820;23.490;2023-04-01T05:38:47;89088.63;;;12.42;48.77
10366;BME280;5229;41.820;23.490;2023-04-01T05:41:14;89087.16;;;13.25;47.38
10366;BME280;5229;41.820;23.490;2023-04-01T05:43:41;89080.16;;;13.64;46.03
10366;BME280;5229;41.820;23.490;2023-04-01T05:46:08;89080.56;;;13.47;46.22
10366;BME280;5229;41.820;23.490;2023-04-01T05:48:35;89091.13;;;13.19;46.53
10366;BME280;5229;41.820;23.490;2023-04-01T05:51:02;89091.53;;;13.02;46.88
10366;BME280;5229;41.820;23.490;2023-04-01T05:53:31;89089.09;;;12.94;46.64
10366;BME280;5229;41.820;23.490;2023-04-01T05:56:01;89070.63;;;12.99;46.83
10366;BME280;5229;41.820;23.490;2023-04-01T05:58:28;89076.94;;;13.17;46.91
10366;BME280;5229;41.820;23.490;2023-04-01T06:01:00;89062.31;;;13.47;46.05
10366;BME280;5229;41.820;23.490;2023-04-01T06:03:28;89065.31;;;13.87;46.17
10366;BME280;5229;41.820;23.490;2023-04-01T06:05:55;89065.75;;;14.56;44.91
10366;BME280;5229;41.820;23.490;2023-04-01T06:08:22;89066.28;;;15.77;43.48
10366;BME280;5229;41.820;23.490;2023-04-01T06:10:59;89045.81;;;17.09;40.31
10366;BME280;5229;41.820;23.490;2023-04-01T06:13:41;89041.81;;;18.19;39.21
10366;BME280;5229;41.820;23.490;2023-04-01T06:16:18;89042.59;;;19.63;36.76
10366;BME280;5229;41.820;23.490;2023-04-01T06:18:59;89038.44;;;21.10;34.71
10366;BME280;5229;41.820;23.490;2023-04-01T06:24:55;89067.41;;;23.84;30.91
10366;BME280;5229;41.820;23.490;2023-04-01T06:30:33;89070.88;;;26.39;27.69
10366;BME280;5229;41.820;23.490;2023-04-01T06:33:11;89084.72;;;27.41;26.13
10366;BME280;5229;41.820;23.490;2023-04-01T06:36:11;89076.78;;;27.75;25.59
10366;BME280;5229;41.820;23.490;2023-04-01T06:39:00;89050.34;;;27.80;24.82
10366;BME280;5229;41.820;23.490;2023-04-01T06:41:57;89038.91;;;27.92;24.83
10366;BME280;5229;41.820;23.490;2023-04-01T06:44:37;89018.50;;;27.64;25.09
10366;BME280;5229;41.820;23.490;2023-04-01T06:47:23;89026.75;;;27.32;25.07
10366;BME280;5229;41.820;23.490;2023-04-01T06:50:01;89038.41;;;26.72;25.79
10366;BME280;5229;41.820;23.490;2023-04-01T06:52:39;89051.84;;;26.69;25.20
10366;BME280;5229;41.820;23.490;2023-04-01T06:55:21;89053.94;;;26.61;25.22
10366;BME280;5229;41.820;23.490;2023-04-01T06:57:52;89051.13;;;26.11;25.46
10366;BME280;5229;41.820;23.490;2023-04-01T07:00:27;89043.81;;;25.55;25.88
10366;BME280;5229;41.820;23.490;2023-04-01T07:03:01;89061.09;;;24.95;26.48
10366;BME280;5229;41.820;23.490;2023-04-01T07:05:31;89059.53;;;24.23;26.65
10366;BME280;5229;41.820;23.490;2023-04-01T07:08:01;89048.56;;;23.36;27.49
10366;BME280;5229;41.820;23.490;2023-04-01T07:10:33;89041.22;;;22.40;28.25
10366;BME280;5229;41.820;23.490;2023-04-01T07:13:05;89046.56;;;21.66;29.32
10366;BME280;5229;41.820;23.490;2023-04-01T07:15:39;89035.91;;;20.92;29.93
10366;BME280;5229;41.820;23.490;2023-04-01T07:18:12;89031.84;;;20.26;31.06
10366;BME280;5229;41.820;23.490;2023-04-01T07:20:41;89055.34;;;19.68;31.57
10366;BME280;5229;41.820;23.490;2023-04-01T07:23:15;89036.66;;;19.13;32.46
10366;BME280;5229;41.820;23.490;2023-04-01T07:25:48;89027.31;;;18.81;32.95
10366;BME280;5229;41.820;23.490;2023-04-01T07:28:17;89026.94;;;18.75;33.08
10366;BME280;5229;41.820;23.490;2023-04-01T07:30:52;89012.25;;;18.95;32.85
10366;BME280;5229;41.820;23.490;2023-04-01T07:33:29;89010.25;;;19.73;32.25
10366;BME280;5229;41.820;23.490;2023-04-01T07:36:03;89008.59;;;20.10;31.67
10366;BME280;5229;41.820;23.490;2023-04-01T07:38:37;89000.63;;;20.21;31.40
10366;BME280;5229;41.820;23.490;2023-04-01T07:41:15;88992.91;;;20.55;31.30
10366;BME280;5229;41.820;23.490;2023-04-01T07:43:58;88989.44;;;20.68;31.02
10366;BME280;5229;41.820;23.490;2023-04-01T07:46:48;88980.88;;;20.54;31.51
10366;BME280;5229;41.820;23.490;2023-04-01T07:49:23;88967.16;;;20.22;31.40
10366;BME280;5229;41.820;23.490;2023-04-01T07:51:57;88981.97;;;19.91;32.18
10366;BME280;5229;41.820;23.490;2023-04-01T07:54:32;88975.22;;;19.90;32.51
10366;BME280;5229;41.820;23.490;2023-04-01T07:57:09;88980.91;;;19.81;32.71
10366;BME280;5229;41.820;23.490;2023-04-01T07:59:44;88989.16;;;19.80;32.71
10366;BME280;5229;41.820;23.490;2023-04-01T08:02:28;88986.47;;;19.90;32.36
10366;BME280;5229;41.820;23.490;2023-04-01T08:05:04;88993.91;;;20.09;32.24
10366;BME280;5229;41.820;23.490;2023-04-01T08:07:44;88989.72;;;20.23;32.61
10366;BME280;5229;41.820;23.490;2023-04-01T08:10:18;88985.13;;;20.34;32.29
10366;BME280;5229;41.820;23.490;2023-04-01T08:12:52;88975.66;;;20.47;31.93
10366;BME280;5229;41.820;23.490;2023-04-01T08:15:27;88968.59;;;20.33;32.05
10366;BME280;5229;41.820;23.490;2023-04-01T08:18:03;88967.59;;;20.17;32.31
10366;BME280;5229;41.820;23.490;2023-04-01T08:20:37;88951.22;;;20.39;31.82
10366;BME280;5229;41.820;23.490;2023-04-01T08:23:10;88943.78;;;21.89;30.67
10366;BME280;5229;41.820;23.490;2023-04-01T08:25:42;88937.91;;;23.31;28.77
10366;BME280;5229;41.820;23.490;2023-04-01T08:28:16;88924.16;;;23.98;28.03
10366;BME280;5229;41.820;23.490;2023-04-01T08:30:48;88943.44;;;24.85;27.48
10366;BME280;5229;41.820;23.490;2023-04-01T08:33:21;88935.44;;;26.19;26.33
10366;BME280;5229;41.820;23.490;2023-04-01T08:35:59;88943.59;;;27.62;24.95
10366;BME280;5229;41.820;23.490;2023-04-01T08:38:31;88948.38;;;28.23;24.35
10366;BME280;5229;41.820;23.490;2023-04-01T08:41:01;88958.66;;;28.55;24.21
10366;BME280;5229;41.820;23.490;2023-04-01T08:44:09;88959.59;;;29.01;23.37
10366;BME280;5229;41.820;23.490;2023-04-01T08:47:00;88940.88;;;29.40;22.66
10366;BME280;5229;41.820;23.490;2023-04-01T08:52:30;88944.34;;;28.71;23.38
10366;BME280;5229;41.820;23.490;2023-04-01T08:55:19;88934.84;;;28.18;23.45
10366;BME280;5229;41.820;23.490;2023-04-01T08:57:59;88928.84;;;27.70;23.92
10366;BME280;5229;41.820;23.490;2023-04-01T09:00:31;88920.44;;;27.25;24.28
10366;BME280;5229;41.820;23.490;2023-04-01T09:03:18;88921.84;;;27.05;24.70
10366;BME280;5229;41.820;23.490;2023-04-01T09:06:02;88920.91;;;26.86;24.89
10366;BME280;5229;41.820;23.490;2023-04-01T09:08:43;88915.28;;;26.97;24.94
10366;BME280;5229;41.820;23.490;2023-04-01T09:11:23;88912.13;;;27.36;24.48
10366;BME280;5229;41.820;23.490;2023-04-01T09:14:22;88913.94;;;27.60;23.98
10366;BME280;5229;41.820;23.490;2023-04-01T09:17:16;88907.97;;;27.35;24.21
10366;BME280;5229;41.820;23.490;2023-04-01T09:19:55;88903.25;;;26.92;24.30
10366;BME280;5229;41.820;23.490;2023-04-01T09:22:37;88916.38;;;26.62;24.95
10366;BME280;5229;41.820;23.490;2023-04-01T09:25:31;88907.28;;;26.09;25.15
10366;BME280;5229;41.820;23.490;2023-04-01T09:28:10;88903.47;;;25.53;25.89
10366;BME280;5229;41.820;23.490;2023-04-01T09:30:53;88892.63;;;25.03;26.14
10366;BME280;5229;41.820;23.490;2023-04-01T09:36:38;88872.81;;;24.91;26.26
10366;BME280;5229;41.820;23.490;2023-04-01T09:39:24;88866.22;;;26.10;25.08
10366;BME280;5229;41.820;23.490;2023-04-01T09:42:07;88859.19;;;28.02;23.34
10366;BME280;5229;41.820;23.490;2023-04-01T09:44:36;88871.25;;;29.80;22.20
10366;BME280;5229;41.820;23.490;2023-04-01T09:47:16;88862.94;;;31.30;20.71
10366;BME280;5229;41.820;23.490;2023-04-01T09:50:04;88859.94;;;32.27;19.68
10366;BME280;5229;41.820;23.490;2023-04-01T09:52:46;88849.22;;;33.05;18.89
10366;BME280;5229;41.820;23.490;2023-04-01T10:01:29;88839.13;;;34.41;17.64
10366;BME280;5229;41.820;23.490;2023-04-01T10:04:35;88828.91;;;34.76;18.15
10366;BME280;5229;41.820;23.490;2023-04-01T10:10:41;88812.97;;;35.51;17.09
10366;BME280;5229;41.820;23.490;2023-04-01T10:13:40;88812.41;;;35.89;17.00
10366;BME280;5229;41.820;23.490;2023-04-01T10:16:26;88820.53;;;36.00;16.80
10366;BME280;5229;41.820;23.490;2023-04-01T10:19:40;88819.59;;;36.14;16.81
10366;BME280;5229;41.820;23.490;2023-04-01T10:26:02;88808.34;;;36.60;15.76
10366;BME280;5229;41.820;23.490;2023-04-01T10:32:06;88791.16;;;37.01;15.96
10366;BME280;5229;41.820;23.490;2023-04-01T10:35:07;88788.19;;;37.21;15.61
10366;BME280;5229;41.820;23.490;2023-04-01T10:40:59;88775.66;;;36.41;16.19
10366;BME280;5229;41.820;23.490;2023-04-01T10:47:13;88773.72;;;33.24;17.74
10366;BME280;5229;41.820;23.490;2023-04-01T10:50:15;88764.53;;;31.97;18.72
10366;BME280;5229;41.820;23.490;2023-04-01T10:56:29;88742.19;;;29.79;20.33
10366;BME280;5229;41.820;23.490;2023-04-01T11:02:45;88728.16;;;28.22;21.92
10366;BME280;5229;41.820;23.490;2023-04-01T11:05:58;88717.38;;;27.64;21.84
10366;BME280;5229;41.820;23.490;2023-04-01T11:09:02;88712.97;;;27.18;21.26
10366;BME280;5229;41.820;23.490;2023-04-01T11:11:57;88709.44;;;26.78;21.11
10366;BME280;5229;41.820;23.490;2023-04-01T11:14:52;88717.84;;;26.43;21.09
10366;BME280;5229;41.820;23.490;2023-04-01T11:23:43;88695.66;;;25.24;21.86
10366;BME280;5229;41.820;23.490;2023-04-01T11:26:24;88685.38;;;24.85;22.28
10366;BME280;5229;41.820;23.490;2023-04-01T11:29:31;88687.81;;;24.51;22.48
10366;BME280;5229;41.820;23.490;2023-04-01T11:32:13;88690.84;;;24.21;22.99
10366;BME280;5229;41.820;23.490;2023-04-01T11:35:02;88676.53;;;23.86;23.08
10366;BME280;5229;41.820;23.490;2023-04-01T11:37:41;88681.66;;;23.61;23.38
10366;BME280;5229;41.820;23.490;2023-04-01T11:40:20;88676.50;;;23.38;23.76
10366;BME280;5229;41.820;23.490;2023-04-01T11:42:57;88671.47;;;23.28;24.15
10366;BME280;5229;41.820;23.490;2023-04-01T11:45:35;88658.53;;;23.14;24.37
10366;BME280;5229;41.820;23.490;2023-04-01T11:51:11;88641.78;;;22.84;24.76
10366;BME280;5229;41.820;23.490;2023-04-01T11:53:47;88642.88;;;22.67;25.23
10366;BME280;5229;41.820;23.490;2023-04-01T11:56:39;88617.59;;;22.47;25.65
10366;BME280;5229;41.820;23.490;2023-04-01T11:59:32;88619.63;;;22.39;25.62
10366;BME280;5229;41.820;23.490;2023-04-01T12:02:11;88615.16;;;22.36;25.79
10366;BME280;5229;41.820;23.490;2023-04-01T12:05:08;88616.94;;;22.23;26.23
10366;BME280;5229;41.820;23.490;2023-04-01T12:10:40;88612.78;;;22.22;26.90
10366;BME280;5229;41.820;23.490;2023-04-01T12:13:25;88615.16;;;22.17;26.96
10366;BME280;5229;41.820;23.490;2023-04-01T12:16:15;88612.06;;;22.02;27.11
10366;BME280;5229;41.820;23.490;2023-04-01T12:18:47;88623.41;;;21.99;27.18
10366;BME280;5229;41.820;23.490;2023-04-01T12:21:23;88633.34;;;21.92;27.29
10366;BME280;5229;41.820;23.490;2023-04-01T12:27:11;88646.16;;;21.93;27.89
10366;BME280;5229;41.820;23.490;2023-04-01T12:30:06;88649.31;;;21.85;29.34
10366;BME280;5229;41.820;23.490;2023-04-01T12:32:40;88671.16;;;21.62;30.84
10366;BME280;5229;41.820;23.490;2023-04-01T12:35:20;88686.81;;;21.23;32.83
10366;BME280;5229;41.820;23.490;2023-04-01T12:37:59;88696.31;;;20.91;34.04
10366;BME280;5229;41.820;23.490;2023-04-01T12:40:51;88694.28;;;20.38;35.65
10366;BME280;5229;41.820;23.490;2023-04-01T12:43:43;88696.53;;;20.02;36.67
10366;BME280;5229;41.820;23.490;2023-04-01T12:46:19;88721.53;;;19.80;37.89
10366;BME280;5229;41.820;23.490;2023-04-01T12:49:09;88710.34;;;19.25;39.32
10366;BME280;5229;41.820;23.490;2023-04-01T12:51:58;88686.13;;;18.90;40.63
10366;BME280;5229;41.820;23.490;2023-04-01T12:54:55;88688.09;;;18.75;41.25
10366;BME280;5229;41.820;23.490;2023-04-01T13:00:38;88693.06;;;18.56;42.79
10366;BME280;5229;41.820;23.490;2023-04-01T13:03:32;88703.59;;;18.49;42.60
10366;BME280;5229;41.820;23.490;2023-04-01T13:06:29;88709.63;;;18.32;42.94
10366;BME280;5229;41.820;23.490;2023-04-01T13:09:10;88694.34;;;18.09;43.07
10366;BME280;5229;41.820;23.490;2023-04-01T13:11:53;88685.41;;;17.93;42.93
10366;BME280;5229;41.820;23.490;2023-04-01T13:15:01;88694.44;;;17.78;42.59
10366;BME280;5229;41.820;23.490;2023-04-01T13:17:36;88677.59;;;17.43;42.57
10366;BME280;5229;41.820;23.490;2023-04-01T13:20:15;88674.22;;;16.90;43.44
10366;BME280;5229;41.820;23.490;2023-04-01T13:22:55;88677.19;;;16.71;44.10
10366;BME280;5229;41.820;23.490;2023-04-01T13:25:32;88676.41;;;16.67;45.38
10366;BME280;5229;41.820;23.490;2023-04-01T13:28:08;88668.56;;;16.57;46.09
10366;BME280;5229;41.820;23.490;2023-04-01T13:30:44;88684.97;;;16.43;45.74
10366;BME280;5229;41.820;23.490;2023-04-01T13:33:17;88660.94;;;16.17;46.30
10366;BME280;5229;41.820;23.490;2023-04-01T13:36:05;88662.34;;;16.00;47.50
10366;BME280;5229;41.820;23.490;2023-04-01T13:39:07;88656.41;;;16.03;47.92
10366;BME280;5229;41.820;23.490;2023-04-01T13:41:47;88652.72;;;16.11;48.19
10366;BME280;5229;41.820;23.490;2023-04-01T13:44:18;88660.16;;;16.09;47.98
10366;BME280;5229;41.820;23.490;2023-04-01T13:50:01;88662.72;;;15.95;48.19
10366;BME280;5229;41.820;23.490;2023-04-01T13:52:58;88648.88;;;15.91;47.75
10366;BME280;5229;41.820;23.490;2023-04-01T13:55:33;88664.22;;;15.96;47.64
10366;BME280;5229;41.820;23.490;2023-04-01T13:58:16;88667.56;;;15.90;47.96
10366;BME280;5229;41.820;23.490;2023-04-01T14:00:54;88675.00;;;15.84;47.90
10366;BME280;5229;41.820;23.490;2023-04-01T14:03:37;88670.13;;;15.86;48.07
10366;BME280;5229;41.820;23.490;2023-04-01T14:06:18;88669.03;;;15.87;47.77
10366;BME280;5229;41.820;23.490;2023-04-01T14:09:10;88657.09;;;15.93;47.34
10366;BME280;5229;41.820;23.490;2023-04-01T14:11:52;88667.22;;;16.02;47.20
10366;BME280;5229;41.820;23.490;2023-04-01T14:14:29;88657.16;;;16.07;46.72
10366;BME280;5229;41.820;23.490;2023-04-01T14:17:27;88669.50;;;16.10;46.88
10366;BME280;5229;41.820;23.490;2023-04-01T14:20:22;88668.75;;;16.10;46.47
10366;BME280;5229;41.820;23.490;2023-04-01T14:23:06;88667.28;;;16.16;46.38
10366;BME280;5229;41.820;23.490;2023-04-01T14:28:49;88656.91;;;16.40;45.96
10366;BME280;5229;41.820;23.490;2023-04-01T14:31:30;88654.31;;;16.44;45.63
10366;BME280;5229;41.820;23.490;2023-04-01T14:34:09;88647.97;;;16.48;45.39
10366;BME280;5229;41.820;23.490;2023-04-01T14:37:00;88651.31;;;16.45;45.45
10366;BME280;5229;41.820;23.490;2023-04-01T14:39:43;88644.22;;;16.46;45.04
10366;BME280;5229;41.820;23.490;2023-04-01T14:42:23;88646.81;;;16.42;45.07
10366;BME280;5229;41.820;23.490;2023-04-01T14:45:12;88646.44;;;16.40;45.06
10366;BME280;5229;41.820;23.490;2023-04-01T14:47:47;88648.34;;;16.43;45.15
10366;BME280;5229;41.820;23.490;2023-04-01T14:50:19;88646.78;;;16.35;45.27
10366;BME280;5229;41.820;23.490;2023-04-01T14:52:55;88662.06;;;16.23;45.48
10366;BME280;5229;41.820;23.490;2023-04-01T14:55:33;88668.00;;;16.13;45.94
10366;BME280;5229;41.820;23.490;2023-04-01T14:58:09;88692.66;;;16.08;46.14